Time;durP1;ratioP1;P1;durP2;ratioP2;P2;SDS_P1;SDS_P2;PMS_P1;PMS_P2;Temp;Humidity;BMP_temperature;BMP_pressure;BME280_temperature;BME280_humidity;BME280_pressure;Samples;Min_cycle;Max_cycle;Signal;HPM_P1;HPM_P2
2023/04/15 00:01:17;;;;;;;2.17;1.52;;;;;;;7.79;100.00;96920.97;3241002;22;20053;-82
2023/04/15 00:02:34;;;;;;;4.07;1.90;;;;;;;7.87;100.00;96920.66;3240773;22;20050;-82
2023/04/15 00:03:53;;;;;;;2.22;1.70;;;;;;;7.81;100.00;96918.28;3241933;22;20022;-82
2023/04/15 00:05:09;;;;;;;2.03;1.60;;;;;;;7.88;100.00;96923.19;3240951;22;20030;-82
2023/04/15 00:06:25;;;;;;;2.50;1.67;;;;;;;7.95;100.00;96925.53;3241169;22;20027;-82
2023/04/15 00:07:40;;;;;;;5.30;1.80;;;;;;;7.85;100.00;96919.88;3241114;22;20057;-82
2023/04/15 00:08:56;;;;;;;2.60;1.67;;;;;;;7.80;100.00;96909.66;3241029;22;20054;-83
2023/04/15 00:10:12;;;;;;;2.67;1.80;;;;;;;7.85;100.00;96923.31;3240657;22;20380;-83
2023/04/15 00:11:27;;;;;;;3.95;1.70;;;;;;;7.83;100.00;96914.72;3241637;22;20596;-83
2023/04/15 00:12:43;;;;;;;3.42;1.73;;;;;;;7.81;100.00;96913.94;3241123;22;20034;-83
2023/04/15 00:13:59;;;;;;;2.42;1.67;;;;;;;7.95;100.00;96917.72;3241366;22;20034;-83
2023/04/15 00:15:15;;;;;;;2.35;1.80;;;;;;;8.08;100.00;96916.31;3242240;22;20020;-83
2023/04/15 00:16:30;;;;;;;2.83;1.90;;;;;;;8.14;100.00;96912.59;3241180;22;20379;-83
2023/04/15 00:17:46;;;;;;;3.65;2.03;;;;;;;8.08;100.00;96913.69;3241208;22;20024;-84
2023/04/15 00:19:02;;;;;;;4.80;2.15;;;;;;;8.03;100.00;96913.88;3240929;22;20077;-83
2023/04/15 00:20:17;;;;;;;3.10;1.70;;;;;;;8.05;100.00;96913.84;3241857;22;20019;-83
2023/04/15 00:21:33;;;;;;;3.35;1.70;;;;;;;8.08;100.00;96912.84;3241102;22;20020;-83
2023/04/15 00:22:49;;;;;;;1.67;1.45;;;;;;;8.05;100.00;96911.22;3241229;22;20020;-83
2023/04/15 00:24:04;;;;;;;2.63;1.52;;;;;;;7.96;100.00;96909.00;3241253;22;20356;-83
2023/04/15 00:25:20;;;;;;;2.25;1.63;;;;;;;7.89;100.00;96913.63;3241746;22;20015;-83
2023/04/15 00:26:36;;;;;;;2.95;1.45;;;;;;;7.97;100.00;96914.16;3241128;22;20490;-83
2023/04/15 00:27:51;;;;;;;2.78;1.60;;;;;;;8.11;100.00;96910.13;3241454;22;20019;-83
2023/04/15 00:29:07;;;;;;;3.05;1.65;;;;;;;8.16;100.00;96914.19;3240962;22;20351;-82
2023/04/15 00:30:24;;;;;;;2.92;1.70;;;;;;;8.04;100.00;96912.13;3241534;22;20486;-83
2023/04/15 00:31:41;;;;;;;2.80;1.55;;;;;;;8.09;100.00;96899.75;3241148;22;20467;-83
2023/04/15 00:32:56;;;;;;;1.73;1.40;;;;;;;7.93;100.00;96911.75;3241004;22;20023;-83
2023/04/15 00:34:12;;;;;;;2.33;1.75;;;;;;;8.02;100.00;96906.13;3241030;22;20023;-83
2023/04/15 00:35:31;;;;;;;2.13;1.40;;;;;;;7.92;100.00;96903.06;3241056;22;20062;-83
2023/04/15 00:36:46;;;;;;;2.17;1.30;;;;;;;7.97;100.00;96906.34;3237558;22;20023;-82
2023/04/15 00:38:03;;;;;;;1.70;1.40;;;;;;;8.05;100.00;96906.00;3241284;22;20020;-83
2023/04/15 00:39:21;;;;;;;2.08;1.50;;;;;;;7.97;100.00;96900.25;3241683;22;20019;-82
2023/04/15 00:40:37;;;;;;;2.30;1.70;;;;;;;7.93;100.00;96898.72;3241315;22;20023;-82
2023/04/15 00:41:53;;;;;;;2.80;1.20;;;;;;;8.02;100.00;96901.78;3241239;22;20024;-82
2023/04/15 00:43:09;;;;;;;1.33;1.20;;;;;;;8.13;100.00;96903.06;3241204;22;20476;-82
2023/04/15 00:44:24;;;;;;;2.20;1.50;;;;;;;8.07;100.00;96901.56;3241037;22;20019;-82
2023/04/15 00:45:40;;;;;;;1.38;1.20;;;;;;;8.01;100.00;96902.69;3240934;22;20074;-82
2023/04/15 00:46:56;;;;;;;2.58;1.38;;;;;;;7.94;100.00;96905.63;3241336;22;20012;-82
2023/04/15 00:48:13;;;;;;;2.08;1.42;;;;;;;7.78;100.00;96898.44;3241049;22;20019;-83
2023/04/15 00:49:28;;;;;;;2.35;1.50;;;;;;;7.85;100.00;96899.03;3241006;22;20026;-83
2023/04/15 00:50:44;;;;;;;2.40;1.88;;;;;;;8.11;100.00;96900.53;3241263;22;20027;-83
2023/04/15 00:52:00;;;;;;;1.75;1.42;;;;;;;8.08;100.00;96903.28;3241216;22;20019;-83
2023/04/15 00:53:16;;;;;;;1.73;1.30;;;;;;;8.08;100.00;96899.81;3240808;22;20102;-83
2023/04/15 00:54:31;;;;;;;2.67;1.10;;;;;;;7.96;100.00;96899.44;3242110;22;20046;-83
2023/04/15 00:55:47;;;;;;;1.35;1.08;;;;;;;7.95;100.00;96900.31;3241359;22;20019;-83
2023/04/15 00:57:05;;;;;;;2.72;1.40;;;;;;;7.96;100.00;96896.84;3241919;22;20019;-83
2023/04/15 00:58:21;;;;;;;1.55;1.30;;;;;;;7.97;100.00;96895.91;3241157;22;20463;-83
2023/04/15 00:59:36;;;;;;;2.80;1.30;;;;;;;7.92;100.00;96892.63;3241035;22;20026;-83
2023/04/15 01:00:53;;;;;;;2.72;1.40;;;;;;;7.89;100.00;96898.84;3240886;22;20031;-83
2023/04/15 01:02:09;;;;;;;2.40;1.40;;;;;;;7.94;100.00;96898.63;3241195;22;20376;-83
2023/04/15 01:03:25;;;;;;;1.30;1.20;;;;;;;7.86;100.00;96892.91;3241000;22;20027;-83
2023/04/15 01:04:41;;;;;;;1.58;1.45;;;;;;;7.99;100.00;96893.22;3241001;22;20435;-83
2023/04/15 01:05:57;;;;;;;2.55;1.70;;;;;;;7.96;100.00;96885.53;3241270;22;20020;-83
2023/04/15 01:07:13;;;;;;;1.95;1.45;;;;;;;7.74;100.00;96889.03;3241010;22;20829;-83
2023/04/15 01:08:29;;;;;;;2.00;1.50;;;;;;;8.02;100.00;96886.13;3240908;22;20024;-83
2023/04/15 01:09:45;;;;;;;1.92;1.50;;;;;;;7.90;100.00;96884.91;3241608;22;20022;-84
2023/04/15 01:11:02;;;;;;;2.47;1.55;;;;;;;7.83;100.00;96883.44;3241778;22;20624;-83
2023/04/15 01:12:19;;;;;;;2.13;1.80;;;;;;;7.90;100.00;96891.84;3240974;22;20019;-83
2023/04/15 01:13:35;;;;;;;5.18;1.40;;;;;;;8.03;100.00;96885.22;3241429;22;20019;-83
2023/04/15 01:14:52;;;;;;;1.45;1.35;;;;;;;7.89;100.00;96887.56;3240973;22;20438;-83
2023/04/15 01:16:08;;;;;;;1.63;1.30;;;;;;;7.91;100.00;96881.38;3240833;22;20385;-83
2023/04/15 01:17:24;;;;;;;1.40;1.27;;;;;;;7.91;100.00;96889.19;3241113;22;20026;-83
2023/04/15 01:18:40;;;;;;;1.98;1.70;;;;;;;8.04;100.00;96886.91;3240704;22;20023;-83
2023/04/15 01:19:58;;;;;;;2.03;1.50;;;;;;;7.97;100.00;96890.69;3240799;22;20024;-84
2023/04/15 01:21:14;;;;;;;1.80;1.58;;;;;;;7.88;100.00;96886.69;3241689;22;20054;-83
2023/04/15 01:22:32;;;;;;;1.98;1.50;;;;;;;8.12;100.00;96885.75;3240836;22;20721;-84
2023/04/15 01:23:49;;;;;;;2.20;1.48;;;;;;;7.81;100.00;96874.88;3240887;22;20027;-84
2023/04/15 01:25:10;;;;;;;1.77;1.23;;;;;;;7.91;100.00;96872.72;3241312;22;20108;-84
2023/04/15 01:26:26;;;;;;;1.38;1.20;;;;;;;7.86;100.00;96872.91;3240742;22;20019;-84
2023/04/15 01:27:42;;;;;;;1.52;1.30;;;;;;;7.88;100.00;96880.66;3240880;22;20019;-85
2023/04/15 01:28:58;;;;;;;3.45;1.42;;;;;;;7.89;100.00;96874.53;3240985;22;20417;-84
2023/04/15 01:30:14;;;;;;;1.85;1.38;;;;;;;7.97;100.00;96871.59;3240540;22;20027;-84
2023/04/15 01:31:30;;;;;;;1.83;1.40;;;;;;;7.94;100.00;96871.75;3240752;22;20518;-85
2023/04/15 01:32:46;;;;;;;1.83;1.20;;;;;;;7.91;100.00;96868.34;3241531;22;20019;-84
2023/04/15 01:34:01;;;;;;;2.20;1.50;;;;;;;7.78;100.00;96864.56;3240817;22;20066;-84
2023/04/15 01:35:17;;;;;;;2.42;1.40;;;;;;;7.76;100.00;96861.19;3240809;22;20042;-84
2023/04/15 01:36:33;;;;;;;1.85;1.50;;;;;;;7.86;100.00;96864.25;3241452;22;20023;-84
2023/04/15 01:37:49;;;;;;;1.67;1.20;;;;;;;7.69;100.00;96857.13;3240964;22;20391;-84
2023/04/15 01:39:05;;;;;;;1.83;1.30;;;;;;;7.81;100.00;96859.22;3240798;22;20398;-83
2023/04/15 01:40:21;;;;;;;2.35;1.50;;;;;;;7.88;100.00;96854.59;3241289;22;20019;-83
2023/04/15 01:41:37;;;;;;;2.58;1.33;;;;;;;7.78;100.00;96849.78;3240709;22;20072;-83
2023/04/15 01:42:52;;;;;;;2.38;1.58;;;;;;;7.82;100.00;96857.44;3241001;22;20027;-84
2023/04/15 01:44:08;;;;;;;2.35;1.40;;;;;;;7.92;100.00;96853.56;3224155;23;20024;-84
2023/04/15 01:45:24;;;;;;;2.58;1.15;;;;;;;7.86;100.00;96857.25;3230516;22;20459;-84
2023/04/15 01:46:40;;;;;;;2.97;1.58;;;;;;;7.98;100.00;96855.03;3240906;22;20016;-83
2023/04/15 01:47:56;;;;;;;3.55;1.55;;;;;;;7.83;100.00;96856.56;3242186;22;20008;-83
2023/04/15 01:49:12;;;;;;;1.98;1.40;;;;;;;7.81;100.00;96858.38;3240477;22;20522;-84
2023/04/15 01:50:27;;;;;;;1.58;1.27;;;;;;;7.81;100.00;96863.56;3237208;22;20363;-85
2023/04/15 01:51:43;;;;;;;2.88;1.45;;;;;;;7.89;100.00;96858.91;3241661;22;20273;-83
2023/04/15 01:52:59;;;;;;;3.97;1.48;;;;;;;7.89;100.00;96866.72;3240837;22;20035;-83
2023/04/15 01:54:14;;;;;;;3.30;1.50;;;;;;;7.89;100.00;96864.97;3240756;22;20020;-83
2023/04/15 01:55:29;;;;;;;2.17;1.27;;;;;;;7.91;100.00;96864.88;3240622;22;20351;-83
2023/04/15 01:56:45;;;;;;;1.92;1.40;;;;;;;7.99;100.00;96859.34;3241529;22;20460;-83
2023/04/15 01:58:01;;;;;;;1.75;1.30;;;;;;;7.93;100.00;96857.84;3240783;22;20027;-83
2023/04/15 01:59:17;;;;;;;1.33;1.00;;;;;;;7.95;100.00;96863.00;3240774;22;20027;-83
2023/04/15 02:00:33;;;;;;;2.58;1.35;;;;;;;7.96;100.00;96867.31;3241178;22;20069;-83
2023/04/15 02:01:48;;;;;;;4.15;1.58;;;;;;;8.05;100.00;96862.53;3240895;22;20073;-83
2023/04/15 02:03:04;;;;;;;1.55;1.38;;;;;;;8.12;100.00;96867.50;3240618;22;20085;-83
2023/04/15 02:04:20;;;;;;;2.47;1.70;;;;;;;8.11;100.00;96866.63;3241009;22;20020;-83
2023/04/15 02:05:35;;;;;;;2.55;1.42;;;;;;;8.00;100.00;96874.06;3240707;22;20023;-83
2023/04/15 02:06:51;;;;;;;3.13;1.50;;;;;;;8.10;100.00;96866.69;3240959;22;20020;-82
2023/04/15 02:08:06;;;;;;;1.77;1.50;;;;;;;8.07;100.00;96875.50;3240923;22;20020;-82
2023/04/15 02:09:22;;;;;;;1.55;1.45;;;;;;;8.04;100.00;96873.03;3240510;22;20065;-82
2023/04/15 02:10:37;;;;;;;3.50;1.60;;;;;;;8.09;100.00;96875.44;3240821;22;20607;-83
2023/04/15 02:11:53;;;;;;;3.03;1.70;;;;;;;7.94;100.00;96876.94;3240785;22;20515;-83
2023/04/15 02:13:09;;;;;;;2.72;1.55;;;;;;;7.88;100.00;96883.25;3240901;22;20479;-83
2023/04/15 02:14:25;;;;;;;1.80;1.60;;;;;;;8.01;100.00;96879.22;3240657;22;20020;-83
2023/04/15 02:15:49;;;;;;;2.45;1.55;;;;;;;7.97;100.00;96879.41;3241759;22;20019;-83
2023/04/15 02:17:07;;;;;;;1.88;1.60;;;;;;;7.82;100.00;96876.56;3240435;22;20355;-83
2023/04/15 02:18:23;;;;;;;2.88;1.55;;;;;;;7.99;100.00;96885.41;3241013;22;20028;-83
2023/04/15 02:19:40;;;;;;;2.33;1.60;;;;;;;7.99;100.00;96881.06;3240530;22;20028;-84
2023/04/15 02:20:57;;;;;;;2.22;1.50;;;;;;;7.96;100.00;96880.34;3240228;22;20165;-84
2023/04/15 02:22:17;;;;;;;3.55;1.75;;;;;;;7.78;100.00;96881.03;3240550;22;20023;-84
2023/04/15 02:23:32;;;;;;;3.13;1.38;;;;;;;7.83;100.00;96880.84;3241194;22;20127;-83
2023/04/15 02:24:48;;;;;;;2.63;1.30;;;;;;;7.86;100.00;96883.31;3241097;22;20019;-83
2023/04/15 02:26:04;;;;;;;2.17;1.52;;;;;;;7.82;100.00;96886.09;3241036;22;20089;-84
2023/04/15 02:27:21;;;;;;;3.40;1.70;;;;;;;7.86;100.00;96885.09;3240373;22;20066;-84
2023/04/15 02:28:37;;;;;;;4.38;1.77;;;;;;;7.88;100.00;96886.69;3240713;22;20095;-83
2023/04/15 02:29:52;;;;;;;3.20;1.80;;;;;;;7.96;100.00;96888.16;3240539;22;20027;-83
2023/04/15 02:31:08;;;;;;;3.90;1.85;;;;;;;7.89;100.00;96882.34;3240319;22;20023;-83
2023/04/15 02:32:24;;;;;;;4.75;2.17;;;;;;;7.87;100.00;96894.59;3241039;22;20019;-83
2023/04/15 02:33:39;;;;;;;4.30;1.80;;;;;;;7.86;100.00;96887.69;3240356;22;20110;-83
2023/04/15 02:34:55;;;;;;;3.40;1.77;;;;;;;7.78;100.00;96899.28;3241370;22;20024;-83
2023/04/15 02:36:11;;;;;;;3.97;1.75;;;;;;;7.90;100.00;96897.94;3240392;22;20031;-83
2023/04/15 02:37:27;;;;;;;3.38;1.85;;;;;;;7.73;100.00;96897.78;3240843;22;20468;-83
2023/04/15 02:38:43;;;;;;;3.65;1.20;;;;;;;7.82;100.00;96897.41;3240384;22;20016;-83
2023/04/15 02:39:59;;;;;;;3.28;1.60;;;;;;;7.73;100.00;96900.38;3241608;22;20444;-83
2023/04/15 02:41:15;;;;;;;1.67;1.23;;;;;;;7.82;100.00;96894.78;3241225;22;20027;-83
2023/04/15 02:42:31;;;;;;;2.67;1.17;;;;;;;7.75;100.00;96896.81;3224830;23;20475;-83
2023/04/15 02:43:46;;;;;;;1.77;0.98;;;;;;;7.80;100.00;96904.44;3230612;22;20020;-83
2023/04/15 02:45:02;;;;;;;2.75;1.17;;;;;;;7.83;100.00;96898.25;3240920;22;20329;-83
2023/04/15 02:46:18;;;;;;;1.55;1.02;;;;;;;7.85;100.00;96899.03;3240317;22;20019;-83
2023/04/15 02:47:35;;;;;;;1.35;0.98;;;;;;;7.77;100.00;96905.41;3224547;23;20384;-83
2023/04/15 02:48:52;;;;;;;2.00;1.00;;;;;;;7.74;100.00;96900.31;3230818;22;20054;-83
2023/04/15 02:50:10;;;;;;;2.47;1.00;;;;;;;7.94;100.00;96910.81;3240378;22;20020;-84
2023/04/15 02:51:30;;;;;;;1.63;1.08;;;;;;;7.97;100.00;96906.34;3240154;22;20094;-84
2023/04/15 02:52:46;;;;;;;3.22;1.10;;;;;;;8.09;100.00;96904.97;3241071;22;20028;-84
2023/04/15 02:54:02;;;;;;;3.50;1.40;;;;;;;7.66;100.00;96902.38;3240493;22;20020;-84
2023/04/15 02:55:17;;;;;;;1.92;1.30;;;;;;;7.77;100.00;96909.78;3240413;22;20020;-84
2023/04/15 02:56:33;;;;;;;3.05;1.30;;;;;;;7.43;100.00;96909.41;3241305;22;20101;-84
2023/04/15 02:57:49;;;;;;;2.42;1.35;;;;;;;7.35;100.00;96907.09;3223652;23;20103;-84
2023/04/15 02:59:04;;;;;;;2.33;1.40;;;;;;;7.29;100.00;96906.50;3230488;22;20027;-84
2023/04/15 03:00:20;;;;;;;1.95;1.10;;;;;;;7.31;100.00;96907.28;3241425;22;20047;-84
2023/04/15 03:01:36;;;;;;;0.52;0.52;;;;;;;7.26;100.00;96893.56;3241714;22;20469;-84
2023/04/15 03:02:57;;;;;;;1.33;0.80;;;;;;;7.28;100.00;96897.00;3241770;22;20023;-84
2023/04/15 03:04:13;;;;;;;2.08;0.90;;;;;;;7.24;100.00;96900.59;3242862;22;20023;-84
2023/04/15 03:05:29;;;;;;;4.00;1.10;;;;;;;7.32;100.00;96899.38;3242463;22;20423;-85
2023/04/15 03:06:45;;;;;;;3.13;0.90;;;;;;;7.27;100.00;96901.34;3221753;23;20027;-85
2023/04/15 03:08:01;;;;;;;0.68;0.55;;;;;;;7.27;100.00;96896.13;3225405;23;20054;-85
2023/04/15 03:09:17;;;;;;;2.80;0.70;;;;;;;7.33;100.00;96902.84;3216412;23;20024;-85
2023/04/15 03:10:33;;;;;;;2.13;0.80;;;;;;;7.43;100.00;96906.78;3232013;22;20414;-85
2023/04/15 03:11:49;;;;;;;0.85;0.80;;;;;;;7.48;100.00;96899.63;3224807;23;20020;-85
2023/04/15 03:13:05;;;;;;;1.27;0.90;;;;;;;7.61;100.00;96889.56;3231344;22;20039;-85
2023/04/15 03:14:21;;;;;;;1.00;0.90;;;;;;;7.57;100.00;96889.75;3240584;22;20020;-85
2023/04/15 03:15:36;;;;;;;1.00;0.80;;;;;;;7.53;100.00;96888.16;3241183;22;20024;-85
2023/04/15 03:16:52;;;;;;;2.95;0.80;;;;;;;7.39;100.00;96896.56;3241584;22;20076;-85
2023/04/15 03:18:08;;;;;;;2.42;1.00;;;;;;;7.73;100.00;96893.41;3241331;22;20126;-85
2023/04/15 03:19:23;;;;;;;0.93;0.77;;;;;;;7.72;100.00;96902.16;3241114;22;20359;-85
2023/04/15 03:20:39;;;;;;;2.38;0.80;;;;;;;7.41;100.00;96895.59;3241292;22;20069;-86
2023/04/15 03:21:55;;;;;;;2.03;1.25;;;;;;;7.29;100.00;96898.69;3241295;22;20455;-85
2023/04/15 03:23:10;;;;;;;3.67;0.90;;;;;;;7.35;100.00;96901.03;3241504;22;20020;-86
2023/04/15 03:24:28;;;;;;;0.73;0.70;;;;;;;7.66;100.00;96901.56;3242245;22;20031;-85
2023/04/15 03:25:44;;;;;;;2.08;0.88;;;;;;;7.33;100.00;96902.84;3242181;22;20023;-85
2023/04/15 03:27:00;;;;;;;0.73;0.73;;;;;;;7.29;100.00;96909.09;3241278;22;20080;-85
2023/04/15 03:28:16;;;;;;;0.90;0.73;;;;;;;7.26;100.00;96898.78;3242150;22;20046;-85
2023/04/15 03:29:32;;;;;;;1.52;0.90;;;;;;;7.24;100.00;96901.47;3241000;22;20034;-84
2023/04/15 03:30:47;;;;;;;1.80;0.80;;;;;;;7.52;100.00;96899.50;3241383;22;20019;-84
2023/04/15 03:32:03;;;;;;;1.92;0.90;;;;;;;7.31;100.00;96896.88;3241414;22;20102;-84
2023/04/15 03:33:18;;;;;;;1.75;0.90;;;;;;;7.19;100.00;96898.16;3241306;22;20020;-84
2023/04/15 03:34:34;;;;;;;1.20;0.90;;;;;;;7.38;100.00;96900.91;3241517;22;20451;-85
2023/04/15 03:35:51;;;;;;;1.27;0.90;;;;;;;7.40;100.00;96900.84;3241646;22;20102;-85
2023/04/15 03:37:07;;;;;;;1.60;0.95;;;;;;;7.61;100.00;96899.13;3241193;22;20488;-85
2023/04/15 03:38:22;;;;;;;2.70;1.17;;;;;;;7.49;100.00;96903.94;3241375;22;20020;-87
2023/04/15 03:39:38;;;;;;;1.48;1.10;;;;;;;7.63;100.00;96899.91;3241126;22;20022;-85
2023/04/15 03:40:54;;;;;;;1.10;0.98;;;;;;;7.74;100.00;96899.47;3241353;22;20460;-85
2023/04/15 03:42:10;;;;;;;0.70;0.70;;;;;;;7.56;100.00;96895.88;3241402;22;20020;-85
2023/04/15 03:43:26;;;;;;;1.40;0.90;;;;;;;7.55;100.00;96884.59;3241399;22;20035;-85
2023/04/15 03:44:41;;;;;;;1.52;0.80;;;;;;;7.49;100.00;96897.88;3241160;22;20023;-85
2023/04/15 03:45:57;;;;;;;1.00;0.85;;;;;;;7.43;100.00;96895.50;3241166;22;20019;-85
2023/04/15 03:47:12;;;;;;;1.98;0.80;;;;;;;7.32;100.00;96896.78;3242024;22;20324;-85
2023/04/15 03:48:28;;;;;;;0.98;0.82;;;;;;;7.36;100.00;96897.50;3241210;22;20027;-84
2023/04/15 03:49:43;;;;;;;0.82;0.68;;;;;;;7.57;100.00;96895.78;3241268;22;20019;-84
2023/04/15 03:50:59;;;;;;;0.82;0.70;;;;;;;7.48;100.00;96891.81;3241655;22;20031;-84
2023/04/15 03:52:15;;;;;;;1.45;0.80;;;;;;;7.44;100.00;96898.06;3241246;22;20472;-85
2023/04/15 03:53:30;;;;;;;1.73;0.80;;;;;;;7.40;100.00;96896.47;3240971;22;20467;-84
2023/04/15 03:54:46;;;;;;;1.15;0.80;;;;;;;7.44;100.00;96898.06;3224597;23;20020;-84
2023/04/15 03:56:02;;;;;;;0.73;0.70;;;;;;;7.44;100.00;96892.84;3230974;22;20360;-85
2023/04/15 03:57:17;;;;;;;1.15;0.70;;;;;;;7.47;100.00;96894.47;3241326;22;20106;-85
2023/04/15 03:58:33;;;;;;;2.17;0.70;;;;;;;7.35;100.00;96895.81;3224699;23;20387;-85
2023/04/15 03:59:48;;;;;;;0.82;0.75;;;;;;;7.30;100.00;96895.16;3230878;22;20081;-85
2023/04/15 04:01:04;;;;;;;0.90;0.70;;;;;;;7.28;100.00;96890.00;3241030;22;20024;-87
2023/04/15 04:02:21;;;;;;;0.90;0.85;;;;;;;7.28;100.00;96895.22;3241216;22;20106;-88
2023/04/15 04:03:37;;;;;;;1.55;0.95;;;;;;;7.32;100.00;96896.78;3224371;23;20032;-85
2023/04/15 04:04:52;;;;;;;1.70;1.10;;;;;;;7.32;100.00;96894.19;3214945;23;20024;-88
2023/04/15 04:06:09;;;;;;;2.40;1.00;;;;;;;7.24;100.00;96898.00;3231110;22;20347;-87
2023/04/15 04:07:24;;;;;;;1.25;0.90;;;;;;;7.38;100.00;96903.50;3241045;22;20107;-88
2023/04/15 04:08:40;;;;;;;1.30;0.90;;;;;;;7.34;100.00;96902.81;3241838;22;20019;-87
2023/04/15 04:09:56;;;;;;;2.45;0.90;;;;;;;7.39;100.00;96907.81;3241878;22;20019;-87
2023/04/15 04:11:12;;;;;;;1.05;0.82;;;;;;;7.40;100.00;96904.28;3241080;22;20024;-87
2023/04/15 04:12:27;;;;;;;1.85;1.02;;;;;;;7.34;100.00;96904.53;3240874;22;20403;-87
2023/04/15 04:13:43;;;;;;;1.45;1.00;;;;;;;7.41;100.00;96911.22;3238007;22;20099;-87
2023/04/15 04:14:58;;;;;;;3.38;1.08;;;;;;;7.40;100.00;96906.88;3241590;22;20439;-86
2023/04/15 04:16:14;;;;;;;4.63;1.00;;;;;;;7.47;100.00;96908.34;3241472;22;20463;-87
2023/04/15 04:17:30;;;;;;;0.90;0.70;;;;;;;7.17;100.00;96903.47;3240862;22;20099;-88
2023/04/15 04:18:45;;;;;;;0.70;0.57;;;;;;;7.41;100.00;96906.00;3241150;22;20454;-87
2023/04/15 04:20:01;;;;;;;2.03;1.17;;;;;;;7.44;100.00;96908.47;3241343;22;20019;-86
2023/04/15 04:21:17;;;;;;;1.63;1.20;;;;;;;7.53;100.00;96916.81;3240892;22;20019;-87
2023/04/15 04:22:37;;;;;;;2.28;0.80;;;;;;;7.44;100.00;96912.81;3241181;22;20031;-86
2023/04/15 04:23:53;;;;;;;1.48;1.20;;;;;;;7.66;100.00;96907.59;3240992;22;20026;-87
2023/04/15 04:25:09;;;;;;;1.13;0.85;;;;;;;7.63;100.00;96908.59;3242036;22;20020;-87
2023/04/15 04:26:25;;;;;;;4.05;1.38;;;;;;;7.65;100.00;96908.50;3240923;22;20183;-88
2023/04/15 04:27:41;;;;;;;3.42;1.60;;;;;;;7.64;100.00;96917.22;3241936;22;20023;-85
2023/04/15 04:28:57;;;;;;;2.45;1.83;;;;;;;7.49;100.00;96916.13;3240725;22;20099;-86
2023/04/15 04:30:12;;;;;;;2.58;1.58;;;;;;;7.52;100.00;96920.34;3241632;22;20023;-88
2023/04/15 04:31:28;;;;;;;1.45;1.27;;;;;;;7.74;100.00;96921.16;3241328;22;20779;-86
2023/04/15 04:32:44;;;;;;;2.22;1.50;;;;;;;7.65;100.00;96918.09;3241491;22;20015;-85
2023/04/15 04:33:59;;;;;;;2.17;1.48;;;;;;;7.73;100.00;96913.41;3224220;23;20405;-86
2023/04/15 04:35:15;;;;;;;3.70;1.80;;;;;;;7.73;100.00;96919.47;3231259;22;20455;-86
2023/04/15 04:36:30;;;;;;;1.90;1.42;;;;;;;7.62;100.00;96922.53;3240721;22;20091;-87
2023/04/15 04:37:46;;;;;;;2.30;1.70;;;;;;;7.83;100.00;96925.16;3241266;22;20054;-86
2023/04/15 04:39:02;;;;;;;2.20;1.60;;;;;;;7.99;100.00;96925.38;3240565;22;20054;-88
2023/04/15 04:40:18;;;;;;;2.72;1.80;;;;;;;7.82;100.00;96919.97;3223482;23;20035;-88
2023/04/15 04:41:34;;;;;;;1.98;1.58;;;;;;;7.91;100.00;96927.44;3231820;22;20026;-87
2023/04/15 04:42:49;;;;;;;2.63;1.83;;;;;;;7.54;100.00;96924.56;3224060;23;20020;-86
2023/04/15 04:44:05;;;;;;;2.25;1.60;;;;;;;7.49;100.00;96927.38;3224295;23;20043;-86
2023/04/15 04:45:21;;;;;;;2.35;1.88;;;;;;;7.70;100.00;96932.63;3230784;22;20371;-87
2023/04/15 04:46:37;;;;;;;3.88;2.10;;;;;;;7.81;100.00;96923.50;3241740;22;20046;-86
2023/04/15 04:47:52;;;;;;;2.78;2.42;;;;;;;7.75;100.00;96932.41;3224677;23;20070;-86
2023/04/15 04:49:08;;;;;;;3.13;2.40;;;;;;;7.40;100.00;96929.50;3231611;22;20024;-87
2023/04/15 04:50:23;;;;;;;2.83;2.33;;;;;;;7.09;100.00;96934.13;3241331;22;20024;-86
2023/04/15 04:51:39;;;;;;;2.83;2.40;;;;;;;7.33;100.00;96931.50;3241082;22;20038;-87
2023/04/15 04:52:55;;;;;;;4.80;2.80;;;;;;;7.48;100.00;96937.84;3241346;22;20340;-87
2023/04/15 04:54:10;;;;;;;4.07;3.08;;;;;;;7.41;100.00;96937.25;3240145;22;20030;-89
2023/04/15 04:55:26;;;;;;;4.43;3.50;;;;;;;7.59;100.00;96934.81;3241479;22;20023;-88
2023/04/15 04:56:42;;;;;;;4.05;3.22;;;;;;;7.59;100.00;96934.81;3224162;23;20024;-87
2023/04/15 04:57:57;;;;;;;4.50;3.50;;;;;;;7.69;100.00;96933.53;3230787;22;20022;-88
2023/04/15 04:59:13;;;;;;;4.78;3.42;;;;;;;7.73;100.00;96929.03;3240674;22;20511;-88
2023/04/15 05:00:29;;;;;;;4.25;3.67;;;;;;;7.89;100.00;96939.69;3240841;22;20054;-87
2023/04/15 05:01:44;;;;;;;5.18;3.70;;;;;;;7.80;100.00;96933.09;3240682;22;20023;-88
2023/04/15 05:03:00;;;;;;;5.43;3.70;;;;;;;7.24;100.00;96931.84;3240659;22;20031;-88
2023/04/15 05:04:22;;;;;;;4.88;3.70;;;;;;;7.59;100.00;96942.63;3240440;22;20023;-90
2023/04/15 05:05:39;;;;;;;5.93;4.20;;;;;;;7.42;100.00;96941.56;3223205;23;20535;-88
2023/04/15 05:06:55;;;;;;;7.18;4.80;;;;;;;7.51;100.00;96945.53;3231244;22;20478;-88
2023/04/15 05:08:11;;;;;;;6.28;4.35;;;;;;;7.40;100.00;96945.13;3241242;22;20011;-89
2023/04/15 05:09:27;;;;;;;7.53;4.78;;;;;;;7.32;100.00;96948.03;3240785;22;20328;-88
2023/04/15 05:10:42;;;;;;;8.02;5.25;;;;;;;7.57;100.00;96944.44;3224093;23;20027;-88
2023/04/15 05:11:58;;;;;;;7.53;4.85;;;;;;;7.34;100.00;96946.19;3229997;22;20023;-88
2023/04/15 05:13:13;;;;;;;7.47;5.13;;;;;;;7.60;100.00;96945.16;3240669;22;20074;-90
2023/04/15 05:14:31;;;;;;;8.13;5.82;;;;;;;7.67;100.00;96937.94;3239728;22;20058;-88
2023/04/15 05:15:46;;;;;;;7.57;5.07;;;;;;;7.66;100.00;96944.06;3240138;22;20596;-89
2023/04/15 05:17:02;;;;;;;7.65;5.07;;;;;;;7.55;100.00;96946.28;3222392;23;20012;-88
2023/04/15 05:18:18;;;;;;;7.70;5.15;;;;;;;7.73;100.00;96944.66;3214716;23;20496;-88
2023/04/15 05:19:33;;;;;;;6.93;4.57;;;;;;;7.72;100.00;96949.03;3226767;22;20073;-88
2023/04/15 05:20:49;;;;;;;6.78;4.60;;;;;;;7.89;100.00;96950.09;3239249;22;20065;-89
2023/04/15 05:22:05;;;;;;;5.75;4.30;;;;;;;7.77;100.00;96959.28;3238646;22;20070;-88
2023/04/15 05:23:21;;;;;;;5.78;3.72;;;;;;;7.39;100.00;96954.66;3223284;23;20023;-89
2023/04/15 05:24:39;;;;;;;5.32;3.63;;;;;;;6.86;100.00;96963.63;3230754;22;20387;-87
2023/04/15 05:25:55;;;;;;;3.05;2.47;;;;;;;6.71;100.00;96959.84;3222690;23;20024;-87
2023/04/15 05:27:10;;;;;;;4.55;3.38;;;;;;;7.01;100.00;96968.25;3229652;22;20027;-87
2023/04/15 05:28:26;;;;;;;6.13;4.13;;;;;;;7.47;100.00;96963.03;3222649;23;20031;-88
2023/04/15 05:29:42;;;;;;;7.05;5.07;;;;;;;7.82;100.00;96967.75;3230110;22;20098;-88
2023/04/15 05:30:57;;;;;;;6.32;4.25;;;;;;;7.70;100.00;96974.31;3240032;22;20039;-89
2023/04/15 05:32:13;;;;;;;7.45;4.30;;;;;;;7.63;100.00;96971.09;3240099;22;20023;-88
2023/04/15 05:33:28;;;;;;;8.55;5.00;;;;;;;7.84;100.00;96972.91;3222874;23;20024;-87
2023/04/15 05:34:44;;;;;;;7.28;4.65;;;;;;;7.81;100.00;96979.09;3229693;22;20062;-88
2023/04/15 05:36:00;;;;;;;6.57;4.43;;;;;;;7.72;100.00;96972.47;3222901;23;20036;-88
2023/04/15 05:37:15;;;;;;;5.68;4.10;;;;;;;7.96;100.00;96979.38;3229878;22;20046;-88
2023/04/15 05:38:31;;;;;;;6.35;4.50;;;;;;;7.70;100.00;96982.13;3239568;22;20027;-88
2023/04/15 05:39:47;;;;;;;7.45;4.82;;;;;;;7.59;100.00;96984.31;3240541;22;20020;-83
2023/04/15 05:41:03;;;;;;;9.77;4.30;;;;;;;7.74;100.00;96983.69;3240535;22;20026;-84
2023/04/15 05:42:18;;;;;;;6.88;4.65;;;;;;;7.90;100.00;96988.28;3240469;22;20026;-81
2023/04/15 05:43:33;;;;;;;17.70;5.20;;;;;;;7.63;100.00;96991.06;3240627;22;20019;-83
2023/04/15 05:44:49;;;;;;;8.40;4.80;;;;;;;7.45;100.00;97000.44;3240451;22;20094;-83
2023/04/15 05:46:05;;;;;;;8.68;5.15;;;;;;;7.36;100.00;96999.06;3240919;22;20050;-83
2023/04/15 05:47:21;;;;;;;8.35;5.40;;;;;;;7.26;100.00;96997.69;3241027;22;20024;-85
2023/04/15 05:48:36;;;;;;;8.52;5.28;;;;;;;7.15;100.00;97001.59;3224005;23;20024;-83
2023/04/15 05:49:52;;;;;;;8.38;5.38;;;;;;;7.20;100.00;96999.63;3213980;23;20024;-83
2023/04/15 05:51:08;;;;;;;10.13;5.97;;;;;;;7.51;100.00;97004.56;3230603;22;20019;-82
2023/04/15 05:52:23;;;;;;;9.13;5.93;;;;;;;7.33;100.00;97004.38;3239773;22;20123;-82
2023/04/15 05:53:40;;;;;;;9.10;6.03;;;;;;;7.26;100.00;97008.13;3241050;22;20015;-81
2023/04/15 05:54:56;;;;;;;11.07;6.10;;;;;;;7.16;100.00;97007.63;3240231;22;20024;-80
2023/04/15 05:56:11;;;;;;;10.50;6.65;;;;;;;7.20;100.00;97012.66;3240814;22;20026;-81
2023/04/15 05:57:27;;;;;;;9.75;6.68;;;;;;;7.43;100.00;97016.16;3240340;22;20015;-82
2023/04/15 05:58:42;;;;;;;9.82;6.47;;;;;;;7.51;100.00;97012.38;3239673;22;20027;-82